Time;durP1;ratioP1;P1;durP2;ratioP2;P2;SDS_P1;SDS_P2;PMS_P1;PMS_P2;Temp;Humidity;BMP_temperature;BMP_pressure;BME280_temperature;BME280_humidity;BME280_pressure;Samples;Min_cycle;Max_cycle;Signal;HPM_P1;HPM_P2
2023/06/10 00:02:08;;;;;;;12.23;5.55;;;16.10;99.90;;;;;;5059041;28;20520;-76
2023/06/10 00:04:34;;;;;;;13.85;6.40;;;16.10;99.90;;;;;;5071755;28;20115;-76
2023/06/10 00:07:00;;;;;;;15.05;6.63;;;16.00;99.90;;;;;;5068566;28;20087;-76
2023/06/10 00:09:26;;;;;;;12.25;6.20;;;16.00;99.90;;;;;;5062269;28;20044;-76
2023/06/10 00:11:52;;;;;;;11.70;5.90;;;16.00;99.90;;;;;;5068563;28;20044;-76
2023/06/10 00:14:18;;;;;;;13.30;5.45;;;15.90;99.90;;;;;;5061987;28;20048;-76
2023/06/10 00:16:44;;;;;;;14.27;5.53;;;15.90;99.90;;;;;;5058624;28;20041;-76
2023/06/10 00:19:13;;;;;;;12.63;5.80;;;15.80;99.90;;;;;;5042733;28;20068;-76
2023/06/10 00:21:40;;;;;;;12.13;5.43;;;15.80;99.90;;;;;;5061927;28;20106;-76
2023/06/10 00:24:13;;;;;;;13.93;5.40;;;15.80;99.90;;;;;;5067391;28;20056;-76
2023/06/10 00:26:40;;;;;;;13.10;5.50;;;15.70;99.90;;;;;;5068811;28;20048;-76
2023/06/10 00:29:07;;;;;;;11.23;5.35;;;15.60;99.90;;;;;;5062475;28;20445;-76
2023/06/10 00:31:34;;;;;;;10.23;5.45;;;15.60;99.90;;;;;;5061329;28;20040;-76
2023/06/10 00:34:00;;;;;;;13.52;5.40;;;15.60;99.90;;;;;;5068442;28;20044;-76
2023/06/10 00:36:26;;;;;;;10.32;4.85;;;15.60;99.90;;;;;;5055062;28;20279;-76
2023/06/10 00:38:52;;;;;;;10.82;5.00;;;15.50;99.90;;;;;;5045418;28;20264;-76
2023/06/10 00:41:18;;;;;;;13.20;5.25;;;15.50;99.90;;;;;;5059845;28;20463;-76
2023/06/10 00:43:44;;;;;;;10.98;4.85;;;15.50;99.90;;;;;;5070230;28;20410;-76
2023/06/10 00:46:11;;;;;;;12.40;4.93;;;15.40;99.90;;;;;;5059089;28;20053;-76
2023/06/10 00:48:40;;;;;;;12.60;4.85;;;15.40;99.90;;;;;;5069087;28;20354;-76
2023/06/10 00:51:08;;;;;;;12.25;5.03;;;15.40;99.90;;;;;;5068346;28;21474;-76
2023/06/10 00:53:36;;;;;;;11.85;4.97;;;15.30;99.90;;;;;;5061467;28;20037;-76
2023/06/10 00:56:03;;;;;;;11.43;4.75;;;15.20;99.90;;;;;;5066983;28;20112;-76
2023/06/10 00:58:29;;;;;;;10.77;4.78;;;15.20;99.90;;;;;;5069775;28;20498;-76
2023/06/10 01:00:55;;;;;;;11.40;4.60;;;15.10;99.90;;;;;;5065147;28;20041;-76
2023/06/10 01:03:21;;;;;;;10.60;4.85;;;15.10;99.90;;;;;;5065837;28;20110;-76
2023/06/10 01:06:01;;;;;;;11.13;4.82;;;15.10;99.90;;;;;;5056759;28;20068;-76
2023/06/10 01:08:46;;;;;;;14.02;4.80;;;15.00;99.90;;;;;;5047497;28;20040;-76
2023/06/10 01:11:34;;;;;;;11.10;4.75;;;15.00;99.90;;;;;;5063283;28;20517;-76
2023/06/10 01:14:01;;;;;;;11.52;4.88;;;15.00;99.90;;;;;;5067542;28;20526;-76
2023/06/10 01:16:28;;;;;;;12.90;4.70;;;14.90;99.90;;;;;;5069327;28;20036;-76
2023/06/10 01:18:54;;;;;;;10.45;4.53;;;14.90;99.90;;;;;;5053921;28;20494;-76
2023/06/10 01:21:24;;;;;;;10.13;4.32;;;14.80;99.90;;;;;;5066932;28;20037;-76
2023/06/10 01:23:51;;;;;;;11.88;5.18;;;14.80;99.90;;;;;;5041682;28;20063;-76
2023/06/10 01:26:20;;;;;;;11.45;5.03;;;14.80;99.90;;;;;;5068581;28;20040;-76
2023/06/10 01:29:05;;;;;;;11.60;4.95;;;14.80;99.90;;;;;;5066999;28;20049;-76
2023/06/10 01:31:40;;;;;;;11.43;4.57;;;14.80;99.90;;;;;;5064017;28;20210;-76
2023/06/10 01:34:13;;;;;;;10.15;4.45;;;14.70;99.90;;;;;;5061534;28;20406;-76
2023/06/10 01:36:41;;;;;;;9.73;4.55;;;14.60;99.90;;;;;;5062122;28;20053;-76
2023/06/10 01:39:08;;;;;;;11.55;4.45;;;14.60;99.90;;;;;;5063945;28;20087;-76
2023/06/10 01:41:35;;;;;;;11.60;4.63;;;14.60;99.90;;;;;;5068710;28;20052;-76
2023/06/10 01:44:00;;;;;;;12.70;4.40;;;14.60;99.90;;;;;;5056916;28;20393;-76
2023/06/10 01:46:26;;;;;;;12.88;4.93;;;14.50;99.90;;;;;;5060556;28;20060;-76
2023/06/10 01:48:52;;;;;;;9.73;4.55;;;14.50;99.90;;;;;;5065325;28;20040;-76
2023/06/10 01:51:18;;;;;;;11.15;5.03;;;14.50;99.90;;;;;;5060964;28;20052;-76
2023/06/10 01:53:43;;;;;;;12.48;4.82;;;14.40;99.90;;;;;;5064203;28;20044;-76
2023/06/10 01:56:09;;;;;;;11.60;4.57;;;14.40;99.90;;;;;;5069207;28;20155;-76
2023/06/10 01:58:35;;;;;;;12.90;4.68;;;14.40;99.90;;;;;;5066227;28;20120;-76
2023/06/10 02:01:01;;;;;;;10.95;4.55;;;14.40;99.90;;;;;;5052253;28;20037;-76
2023/06/10 02:03:26;;;;;;;13.10;5.15;;;14.30;99.90;;;;;;5050358;28;20049;-76
2023/06/10 02:05:52;;;;;;;12.85;4.57;;;14.30;99.90;;;;;;5062143;28;20075;-76
2023/06/10 02:08:18;;;;;;;12.02;5.07;;;14.30;99.90;;;;;;5063273;28;20043;-76
2023/06/10 02:10:44;;;;;;;10.63;4.68;;;14.30;99.90;;;;;;5069749;28;20044;-76
2023/06/10 02:13:09;;;;;;;11.65;4.95;;;14.30;99.90;;;;;;5067289;28;20033;-76
2023/06/10 02:15:35;;;;;;;10.70;4.32;;;14.30;99.90;;;;;;5064299;28;20067;-76
2023/06/10 02:18:02;;;;;;;11.80;4.15;;;14.30;99.90;;;;;;5065805;28;20120;-76
2023/06/10 02:20:28;;;;;;;11.23;4.47;;;14.20;99.90;;;;;;5052676;28;20051;-76
2023/06/10 02:22:53;;;;;;;13.23;4.82;;;14.20;99.90;;;;;;5066251;28;20036;-76
2023/06/10 02:25:19;;;;;;;9.93;4.15;;;14.20;99.90;;;;;;5050444;28;20135;-76
2023/06/10 02:27:45;;;;;;;10.75;4.70;;;14.10;99.90;;;;;;5065900;28;20082;-76
2023/06/10 02:30:12;;;;;;;11.10;4.78;;;14.20;99.90;;;;;;5058638;28;20474;-76
2023/06/10 02:32:38;;;;;;;11.45;4.90;;;14.10;99.90;;;;;;5060176;28;20037;-76
2023/06/10 02:35:04;;;;;;;11.57;4.82;;;14.00;99.90;;;;;;5043338;28;20102;-76
2023/06/10 02:37:30;;;;;;;11.48;4.53;;;14.00;99.90;;;;;;5050073;28;20067;-76
2023/06/10 02:39:55;;;;;;;11.07;4.68;;;14.00;99.90;;;;;;5053545;28;20465;-76
2023/06/10 02:42:21;;;;;;;11.18;4.80;;;13.90;99.90;;;;;;5043441;28;20052;-76
2023/06/10 02:44:47;;;;;;;11.60;4.38;;;13.90;99.90;;;;;;5062050;28;20413;-76
2023/06/10 02:47:12;;;;;;;11.30;4.28;;;13.90;99.90;;;;;;5048178;28;20050;-76
2023/06/10 02:49:38;;;;;;;11.40;4.63;;;13.90;99.90;;;;;;5064648;28;20071;-76
2023/06/10 02:52:04;;;;;;;10.88;4.22;;;13.90;99.90;;;;;;5051527;28;20116;-76
2023/06/10 02:54:30;;;;;;;15.43;4.72;;;13.80;99.90;;;;;;5066285;28;20470;-76
2023/06/10 02:56:56;;;;;;;11.15;4.25;;;13.80;99.90;;;;;;5061864;28;20075;-77
2023/06/10 02:59:22;;;;;;;11.35;4.55;;;13.80;99.90;;;;;;5042535;28;20090;-77
2023/06/10 03:01:48;;;;;;;12.20;4.90;;;13.70;99.90;;;;;;5057139;28;20584;-77
2023/06/10 03:04:14;;;;;;;12.77;4.63;;;13.70;99.90;;;;;;5050048;28;20146;-77
2023/06/10 03:06:45;;;;;;;12.57;4.90;;;13.70;99.90;;;;;;5063284;28;20044;-76
2023/06/10 03:09:11;;;;;;;10.45;4.65;;;13.70;99.90;;;;;;5064551;28;20071;-76
2023/06/10 03:11:36;;;;;;;11.68;4.97;;;13.70;99.90;;;;;;5062349;28;20064;-76
2023/06/10 03:14:02;;;;;;;11.70;4.45;;;13.70;99.90;;;;;;5055667;28;20067;-76
2023/06/10 03:16:30;;;;;;;12.18;4.85;;;13.70;99.90;;;;;;5067147;28;20577;-76
2023/06/10 03:18:56;;;;;;;13.52;5.10;;;13.60;99.90;;;;;;5053866;28;20045;-76
2023/06/10 03:21:21;;;;;;;11.77;4.70;;;13.60;99.90;;;;;;5069786;28;20047;-76
2023/06/10 03:23:47;;;;;;;13.18;5.25;;;13.60;99.90;;;;;;5071248;28;20044;-76
2023/06/10 03:26:15;;;;;;;11.65;4.53;;;13.60;99.90;;;;;;5063933;28;20097;-76
2023/06/10 03:28:41;;;;;;;12.13;5.38;;;13.50;99.90;;;;;;5069007;28;20127;-76
2023/06/10 03:31:07;;;;;;;12.77;5.13;;;13.50;99.90;;;;;;5070343;28;20112;-76
2023/06/10 03:33:32;;;;;;;12.20;4.80;;;13.50;99.90;;;;;;5048200;28;20049;-77
2023/06/10 03:35:58;;;;;;;12.70;4.90;;;13.50;99.90;;;;;;5065039;28;20044;-76
2023/06/10 03:38:24;;;;;;;12.52;5.13;;;13.50;99.90;;;;;;5060046;28;20499;-76
2023/06/10 03:40:50;;;;;;;12.68;4.85;;;13.50;99.90;;;;;;5067621;28;20042;-76
2023/06/10 03:43:16;;;;;;;12.15;5.38;;;13.50;99.90;;;;;;5056168;28;20506;-76
2023/06/10 03:45:42;;;;;;;13.15;5.53;;;13.50;99.90;;;;;;5035709;28;20080;-76
2023/06/10 03:48:08;;;;;;;13.57;5.70;;;13.50;99.90;;;;;;5049981;28;20046;-76
2023/06/10 03:50:34;;;;;;;12.35;5.05;;;13.50;99.90;;;;;;5065682;28;20116;-76
2023/06/10 03:53:00;;;;;;;13.43;5.50;;;13.60;99.90;;;;;;5068388;28;20044;-77
2023/06/10 03:55:26;;;;;;;15.20;6.13;;;13.60;99.90;;;;;;5065815;28;20505;-77
2023/06/10 03:57:52;;;;;;;14.57;5.30;;;13.60;99.90;;;;;;5050970;28;20076;-77
2023/06/10 04:00:21;;;;;;;14.77;6.03;;;13.60;99.90;;;;;;5042367;28;20049;-77
2023/06/10 04:02:49;;;;;;;11.32;6.00;;;13.60;99.90;;;;;;5060922;28;20043;-77
2023/06/10 04:05:16;;;;;;;12.85;5.30;;;13.70;99.90;;;;;;5067458;28;20041;-77
2023/06/10 04:07:43;;;;;;;14.75;5.90;;;13.70;99.90;;;;;;5067494;28;20064;-76
2023/06/10 04:10:10;;;;;;;12.77;6.13;;;13.80;99.90;;;;;;5059577;28;20079;-77
2023/06/10 04:12:36;;;;;;;14.07;5.70;;;13.90;99.90;;;;;;5069430;28;20041;-77
2023/06/10 04:15:04;;;;;;;15.35;6.40;;;13.90;99.90;;;;;;5064994;28;20125;-77
2023/06/10 04:17:30;;;;;;;12.52;5.57;;;14.10;99.90;;;;;;5050704;28;20152;-77
2023/06/10 04:19:56;;;;;;;13.90;6.28;;;14.10;99.90;;;;;;5066251;28;20090;-77
2023/06/10 04:22:22;;;;;;;15.43;6.15;;;14.20;99.90;;;;;;5069925;28;20041;-77
2023/06/10 04:24:48;;;;;;;14.13;5.70;;;14.30;99.90;;;;;;5067601;28;20052;-77
2023/06/10 04:27:14;;;;;;;13.38;5.93;;;14.40;99.90;;;;;;5068583;28;20082;-77
2023/06/10 04:29:40;;;;;;;13.20;5.90;;;14.50;99.90;;;;;;5066199;28;20549;-77
2023/06/10 04:32:07;;;;;;;13.35;5.90;;;14.50;99.90;;;;;;5064342;28;20102;-77
2023/06/10 04:34:38;;;;;;;15.30;6.45;;;14.60;99.90;;;;;;5067560;28;20175;-77
2023/06/10 04:37:05;;;;;;;13.52;6.22;;;14.60;99.90;;;;;;5055886;28;20037;-77
2023/06/10 04:39:31;;;;;;;14.15;6.38;;;14.70;99.90;;;;;;5053797;28;20051;-77
2023/06/10 04:41:57;;;;;;;14.07;5.97;;;14.80;99.90;;;;;;5063486;28;20091;-77
2023/06/10 04:44:22;;;;;;;16.17;6.30;;;14.80;99.90;;;;;;5067270;28;20049;-77
2023/06/10 04:46:48;;;;;;;16.02;6.10;;;14.90;99.90;;;;;;5064839;28;20056;-77
2023/06/10 04:49:14;;;;;;;13.57;5.65;;;14.90;99.90;;;;;;5063412;28;20367;-77
2023/06/10 04:51:40;;;;;;;15.73;6.22;;;15.00;99.90;;;;;;5064488;28;20069;-77
2023/06/10 04:54:06;;;;;;;12.48;6.25;;;15.10;99.90;;;;;;5057182;28;20041;-77
2023/06/10 04:56:32;;;;;;;13.05;5.95;;;15.10;99.90;;;;;;5045652;28;20116;-77
2023/06/10 04:58:58;;;;;;;13.77;6.07;;;15.10;99.90;;;;;;5061462;28;20123;-77
2023/06/10 05:01:24;;;;;;;16.08;6.15;;;15.20;99.90;;;;;;5056646;28;20756;-77
2023/06/10 05:03:49;;;;;;;14.32;6.43;;;15.20;99.90;;;;;;5042162;28;20460;-77
2023/06/10 05:06:15;;;;;;;14.98;5.80;;;15.30;99.90;;;;;;5061469;28;20082;-78
2023/06/10 05:08:41;;;;;;;16.05;6.20;;;15.30;99.90;;;;;;5065523;28;20056;-76
2023/06/10 05:11:06;;;;;;;14.45;5.85;;;15.40;99.90;;;;;;5069064;28;20048;-77
2023/06/10 05:13:32;;;;;;;16.20;6.10;;;15.40;99.90;;;;;;5058171;28;20483;-76
2023/06/10 05:15:58;;;;;;;17.38;5.68;;;15.50;99.90;;;;;;5047853;28;20041;-77
2023/06/10 05:18:24;;;;;;;12.52;5.45;;;15.60;99.90;;;;;;5058096;28;20079;-76
2023/06/10 05:20:50;;;;;;;15.30;5.70;;;15.70;99.90;;;;;;5055365;28;20052;-77
2023/06/10 05:23:16;;;;;;;12.35;5.88;;;15.70;99.90;;;;;;5062757;28;20116;-77
2023/06/10 05:25:42;;;;;;;13.02;5.88;;;15.70;99.90;;;;;;5065833;28;20851;-78
2023/06/10 05:28:09;;;;;;;12.05;5.53;;;15.70;99.90;;;;;;5063333;28;20048;-77
2023/06/10 05:30:38;;;;;;;14.07;5.78;;;15.70;99.90;;;;;;5057190;28;20075;-77
2023/06/10 05:33:04;;;;;;;13.15;5.75;;;15.70;99.90;;;;;;5036420;28;20028;-78
2023/06/10 05:35:30;;;;;;;12.20;5.50;;;15.80;99.90;;;;;;5059726;28;20087;-78
2023/06/10 05:37:56;;;;;;;13.73;5.68;;;15.90;99.90;;;;;;5056584;28;20044;-77
2023/06/10 05:40:25;;;;;;;13.95;5.93;;;15.90;99.90;;;;;;5058823;28;20051;-77
2023/06/10 05:42:51;;;;;;;13.40;5.72;;;15.90;99.90;;;;;;5057097;28;20083;-77
2023/06/10 05:45:17;;;;;;;14.23;5.72;;;16.00;99.90;;;;;;5060641;28;20127;-78
2023/06/10 05:47:42;;;;;;;14.75;6.28;;;16.10;99.90;;;;;;5057155;28;20049;-76
2023/06/10 05:50:09;;;;;;;11.68;5.47;;;16.10;99.90;;;;;;5052866;28;20037;-77
2023/06/10 05:52:40;;;;;;;14.77;5.78;;;16.20;99.90;;;;;;5065996;28;20037;-77
2023/06/10 05:55:06;;;;;;;13.73;5.47;;;16.30;99.90;;;;;;5062690;28;20076;-77
2023/06/10 05:57:32;;;;;;;12.48;5.60;;;16.40;99.90;;;;;;5065559;28;20032;-77
2023/06/10 05:59:58;;;;;;;13.95;5.53;;;16.40;99.90;;;;;;5060826;28;20090;-76
2023/06/10 06:02:24;;;;;;;12.65;5.30;;;16.50;99.90;;;;;;5059938;28;20036;-76
2023/06/10 06:04:50;;;;;;;14.20;5.90;;;16.60;99.90;;;;;;5054530;28;20401;-77
2023/06/10 06:07:16;;;;;;;14.15;5.10;;;16.60;99.90;;;;;;5057456;28;20039;-77
2023/06/10 06:09:41;;;;;;;15.10;5.75;;;16.70;99.90;;;;;;5060096;28;20039;-76
2023/06/10 06:12:07;;;;;;;13.77;5.22;;;16.70;99.90;;;;;;5057445;28;20063;-77
2023/06/10 06:14:38;;;;;;;13.13;5.38;;;16.50;99.90;;;;;;5056152;28;20040;-79
2023/06/10 06:17:04;;;;;;;14.93;5.72;;;16.70;99.90;;;;;;5054424;28;20573;-77
2023/06/10 06:19:30;;;;;;;13.55;5.20;;;16.70;99.90;;;;;;5038342;28;20040;-79
2023/06/10 06:21:56;;;;;;;16.13;5.35;;;16.90;99.90;;;;;;5053014;28;20518;-78
2023/06/10 06:24:21;;;;;;;12.68;5.20;;;17.00;99.90;;;;;;5025960;28;20048;-78
2023/06/10 06:26:47;;;;;;;12.48;5.10;;;17.10;99.90;;;;;;5066783;28;20140;-78
2023/06/10 06:29:13;;;;;;;12.63;5.05;;;17.20;99.90;;;;;;5066690;28;20045;-78
2023/06/10 06:31:38;;;;;;;12.73;5.15;;;17.30;99.90;;;;;;5055338;28;20453;-78
2023/06/10 06:34:04;;;;;;;12.18;5.18;;;17.40;99.90;;;;;;5047454;28;20168;-77
2023/06/10 06:36:30;;;;;;;12.85;5.40;;;17.40;99.90;;;;;;5063820;28;20034;-77
2023/06/10 06:38:57;;;;;;;12.43;4.63;;;17.50;99.90;;;;;;5068878;28;20119;-77
2023/06/10 06:41:23;;;;;;;13.07;5.03;;;17.60;99.90;;;;;;5064864;28;20066;-78
2023/06/10 06:43:48;;;;;;;12.88;5.40;;;17.70;99.90;;;;;;5065414;28;20060;-78
2023/06/10 06:46:15;;;;;;;11.88;5.15;;;17.70;99.90;;;;;;5043342;28;20120;-78
2023/06/10 06:48:41;;;;;;;11.52;4.88;;;17.80;99.90;;;;;;5056009;28;20042;-78
2023/06/10 06:51:07;;;;;;;11.48;4.97;;;17.90;99.90;;;;;;5056297;28;20033;-78
2023/06/10 06:53:32;;;;;;;13.60;4.97;;;18.00;99.90;;;;;;5040636;28;20437;-78
2023/06/10 06:55:58;;;;;;;11.90;4.95;;;18.00;99.90;;;;;;5031263;28;20037;-78
2023/06/10 06:58:24;;;;;;;10.35;4.47;;;18.20;99.90;;;;;;5062770;28;20047;-78
2023/06/10 07:00:50;;;;;;;11.50;4.78;;;18.30;99.90;;;;;;5037962;28;20040;-78
2023/06/10 07:03:16;;;;;;;11.63;4.82;;;18.40;99.90;;;;;;5058777;28;20033;-79
2023/06/10 07:05:41;;;;;;;11.32;4.40;;;18.40;99.90;;;;;;5030845;28;20137;-79
2023/06/10 07:08:07;;;;;;;12.43;4.97;;;18.50;99.90;;;;;;5048956;28;20072;-79
2023/06/10 07:10:33;;;;;;;12.00;4.72;;;18.40;99.90;;;;;;5052236;28;20043;-78
2023/06/10 07:12:58;;;;;;;11.20;4.93;;;18.50;99.90;;;;;;5048058;28;20029;-78
2023/06/10 07:15:24;;;;;;;11.02;4.68;;;18.60;99.90;;;;;;5063160;28;20110;-80
2023/06/10 07:17:50;;;;;;;13.70;4.80;;;18.70;99.90;;;;;;5059510;28;20106;-78
2023/06/10 07:20:16;;;;;;;11.43;4.63;;;18.60;99.90;;;;;;5039022;28;20033;-77
2023/06/10 07:22:42;;;;;;;10.88;4.22;;;18.70;99.90;;;;;;5060269;28;20483;-77
2023/06/10 07:25:08;;;;;;;12.52;4.70;;;18.70;99.90;;;;;;5059634;28;20036;-77
2023/06/10 07:27:35;;;;;;;11.88;4.60;;;18.80;99.90;;;;;;5068196;28;20052;-77
2023/06/10 07:30:01;;;;;;;13.02;4.70;;;18.90;99.90;;;;;;5067666;28;20525;-79
2023/06/10 07:32:27;;;;;;;11.90;4.70;;;19.00;99.90;;;;;;5067698;28;20040;-77
2023/06/10 07:34:53;;;;;;;11.02;4.45;;;19.10;99.90;;;;;;5061736;28;20048;-77
2023/06/10 07:37:19;;;;;;;14.05;4.68;;;19.10;99.90;;;;;;5065432;28;20348;-77
2023/06/10 07:39:45;;;;;;;11.45;4.50;;;19.20;99.90;;;;;;5068666;28;20486;-77
2023/06/10 07:42:11;;;;;;;10.63;4.38;;;19.20;99.90;;;;;;5068678;28;20068;-77
2023/06/10 07:44:37;;;;;;;12.80;4.68;;;19.30;99.90;;;;;;5049823;28;20470;-77
2023/06/10 07:47:03;;;;;;;11.73;4.65;;;19.40;99.90;;;;;;5061434;28;20068;-77
2023/06/10 07:49:28;;;;;;;11.70;4.28;;;19.40;99.90;;;;;;5050392;28;20153;-77
2023/06/10 07:51:57;;;;;;;12.63;3.97;;;19.40;99.90;;;;;;5067405;28;20067;-77
2023/06/10 07:54:23;;;;;;;15.55;4.68;;;19.50;99.90;;;;;;5067187;28;20037;-77
2023/06/10 07:56:49;;;;;;;12.15;4.20;;;19.50;99.90;;;;;;5064842;28;20058;-78
2023/06/10 07:59:15;;;;;;;12.35;4.38;;;;;;;;;;5047067;28;20589;-77
2023/06/10 08:01:42;;;;;;;11.70;4.07;;;19.60;99.90;;;;;;5047567;28;20048;-77
2023/06/10 08:04:08;;;;;;;11.65;4.25;;;19.70;99.90;;;;;;5051751;28;20414;-77
2023/06/10 08:06:33;;;;;;;11.15;3.67;;;19.80;99.90;;;;;;5055509;28;20040;-77
2023/06/10 08:09:00;;;;;;;9.77;3.80;;;19.80;99.90;;;;;;5068142;28;20040;-77
2023/06/10 08:11:28;;;;;;;11.25;4.20;;;19.90;99.90;;;;;;5054106;28;20539;-77
2023/06/10 08:13:54;;;;;;;12.57;4.38;;;20.00;99.90;;;;;;5070479;28;20074;-77
2023/06/10 08:16:20;;;;;;;11.60;3.65;;;20.00;99.90;;;;;;5070692;28;20040;-77
2023/06/10 08:18:46;;;;;;;11.90;4.00;;;20.20;99.90;;;;;;5067511;28;20041;-77
2023/06/10 08:21:11;;;;;;;10.38;4.05;;;20.30;99.90;;;;;;5072335;28;20057;-77
2023/06/10 08:23:37;;;;;;;10.15;4.10;;;20.50;99.90;;;;;;5071519;28;20414;-77
2023/06/10 08:26:03;;;;;;;12.00;4.22;;;20.50;99.90;;;;;;5070594;28;20044;-77
2023/06/10 08:28:29;;;;;;;14.32;4.07;;;20.60;99.90;;;;;;5060158;28;20049;-79
2023/06/10 08:30:54;;;;;;;15.32;4.22;;;20.60;99.90;;;;;;5045073;28;20044;-78
2023/06/10 08:33:20;;;;;;;11.43;3.95;;;20.60;99.90;;;;;;5071413;28;20312;-77
2023/06/10 08:35:46;;;;;;;10.13;3.97;;;20.70;99.90;;;;;;5063663;28;20044;-79
2023/06/10 08:38:11;;;;;;;10.25;3.58;;;20.80;99.90;;;;;;5052272;28;20045;-77
2023/06/10 08:40:37;;;;;;;11.65;3.63;;;20.90;99.90;;;;;;5054235;28;20078;-79
2023/06/10 08:43:08;;;;;;;12.07;4.13;;;21.00;99.90;;;;;;5065602;28;20129;-78
2023/06/10 08:45:37;;;;;;;11.57;3.92;;;21.00;99.90;;;;;;5071290;28;20194;-77
2023/06/10 08:48:06;;;;;;;9.45;3.65;;;21.10;99.90;;;;;;5070423;28;20115;-77
2023/06/10 08:50:37;;;;;;;10.30;3.67;;;21.10;99.90;;;;;;5063631;28;20158;-79
2023/06/10 08:53:05;;;;;;;12.65;3.60;;;21.10;99.90;;;;;;5049910;28;20029;-79
2023/06/10 08:55:40;;;;;;;11.20;3.90;;;21.10;99.90;;;;;;5033065;28;20049;-77
2023/06/10 08:58:06;;;;;;;10.10;3.50;;;21.20;99.90;;;;;;5046397;28;20048;-77
2023/06/10 09:00:33;;;;;;;11.23;3.85;;;21.20;99.90;;;;;;5065711;28;20036;-77
2023/06/10 09:03:01;;;;;;;12.65;3.95;;;21.40;99.90;;;;;;5056063;28;20040;-78
2023/06/10 09:05:28;;;;;;;11.13;3.80;;;21.40;99.90;;;;;;5049494;28;20124;-78
2023/06/10 09:07:57;;;;;;;13.32;4.00;;;21.50;99.90;;;;;;5050872;28;20036;-77
2023/06/10 09:10:23;;;;;;;11.60;3.78;;;21.40;99.90;;;;;;5056347;28;20490;-77
2023/06/10 09:12:48;;;;;;;10.93;3.53;;;21.50;99.90;;;;;;5069370;28;20142;-77
2023/06/10 09:15:17;;;;;;;11.23;3.58;;;21.60;99.90;;;;;;5052510;28;20458;-78
2023/06/10 09:17:43;;;;;;;8.57;3.20;;;21.70;99.90;;;;;;5069487;28;20044;-77
2023/06/10 09:20:09;;;;;;;9.93;3.63;;;21.90;99.90;;;;;;5069456;28;20055;-78
2023/06/10 09:22:35;;;;;;;9.85;3.90;;;22.00;99.90;;;;;;5056443;28;20043;-77
2023/06/10 09:25:12;;;;;;;9.82;3.55;;;22.00;99.90;;;;;;5068980;28;20060;-78
2023/06/10 09:27:53;;;;;;;12.10;3.53;;;22.20;99.90;;;;;;5070544;28;20040;-78
2023/06/10 09:30:31;;;;;;;10.32;3.80;;;22.20;99.90;;;;;;5069042;28;20498;-77
2023/06/10 09:32:58;;;;;;;10.20;3.50;;;22.20;99.90;;;;;;5056697;28;20048;-77
2023/06/10 09:35:25;;;;;;;11.35;4.30;;;22.20;99.90;;;;;;5052108;28;20094;-77
2023/06/10 09:37:58;;;;;;;10.25;3.90;;;22.30;99.90;;;;;;5056210;28;20120;-77
2023/06/10 09:40:24;;;;;;;9.77;3.67;;;22.60;99.90;;;;;;5033003;28;20045;-77
2023/06/10 09:42:59;;;;;;;12.20;3.85;;;22.40;99.90;;;;;;5032798;28;20572;-77
2023/06/10 09:45:31;;;;;;;12.82;3.67;;;22.50;99.90;;;;;;5055378;28;20510;-77
2023/06/10 09:47:57;;;;;;;13.13;3.70;;;22.60;99.90;;;;;;5068995;28;20951;-77
2023/06/10 09:50:23;;;;;;;10.27;3.90;;;22.60;99.90;;;;;;5069238;28;20076;-78
2023/06/10 09:52:50;;;;;;;13.02;3.90;;;22.40;99.90;;;;;;5035697;28;20041;-77
2023/06/10 09:55:17;;;;;;;9.18;3.38;;;22.70;99.90;;;;;;5048259;28;20049;-77
2023/06/10 09:57:47;;;;;;;8.73;3.25;;;22.80;99.90;;;;;;5062213;28;20059;-77
2023/06/10 10:00:13;;;;;;;10.55;3.55;;;22.80;99.90;;;;;;5069424;28;20049;-78
2023/06/10 10:02:53;;;;;;;11.90;3.47;;;22.90;99.90;;;;;;5062305;28;20041;-77
2023/06/10 10:05:21;;;;;;;10.80;3.50;;;23.00;99.90;;;;;;5049683;28;20132;-77
2023/06/10 10:07:47;;;;;;;12.02;3.85;;;23.00;99.90;;;;;;5050241;28;20056;-77
2023/06/10 10:10:15;;;;;;;9.85;3.40;;;23.00;99.90;;;;;;5062990;28;20036;-76
2023/06/10 10:12:42;;;;;;;11.10;3.78;;;23.20;99.90;;;;;;5065809;28;20044;-77
2023/06/10 10:15:09;;;;;;;10.68;3.80;;;23.20;99.90;;;;;;5068502;28;20087;-78
2023/06/10 10:18:03;;;;;;;9.48;3.70;;;23.30;99.90;;;;;;5068243;28;20040;-78
2023/06/10 10:20:33;;;;;;;12.45;4.20;;;23.00;99.90;;;;;;5069455;28;20072;-77
2023/06/10 10:23:02;;;;;;;10.57;3.53;;;23.30;99.90;;;;;;5067390;28;20044;-77
2023/06/10 10:25:40;;;;;;;12.70;4.28;;;23.40;99.90;;;;;;5061615;28;20126;-76
2023/06/10 10:28:10;;;;;;;9.55;3.83;;;23.40;99.90;;;;;;5067873;28;20056;-77
2023/06/10 10:30:46;;;;;;;9.93;3.72;;;23.40;99.90;;;;;;5068547;28;20124;-77
2023/06/10 10:33:45;;;;;;;10.82;4.15;;;23.40;99.90;;;;;;5046973;28;20060;-77
2023/06/10 10:36:13;;;;;;;10.43;4.10;;;23.50;99.90;;;;;;5048914;28;20482;-77
2023/06/10 10:38:39;;;;;;;10.50;4.05;;;23.50;99.90;;;;;;5051077;28;20052;-77
2023/06/10 10:41:06;;;;;;;9.07;3.92;;;23.60;99.90;;;;;;5069228;28;20036;-77
2023/06/10 10:43:33;;;;;;;10.65;3.90;;;23.60;99.90;;;;;;5066526;28;20110;-77
2023/06/10 10:46:06;;;;;;;10.85;3.45;;;23.80;99.90;;;;;;5068327;28;20123;-78
2023/06/10 10:48:38;;;;;;;9.75;3.50;;;25.10;99.90;;;;;;5062290;28;20410;-77
2023/06/10 10:51:04;;;;;;;12.65;4.07;;;23.90;99.90;;;;;;5068643;28;20040;-78
2023/06/10 10:53:30;;;;;;;9.90;3.42;;;24.00;99.90;;;;;;5066526;28;20040;-77
2023/06/10 10:56:18;;;;;;;10.77;3.50;;;23.90;99.90;;;;;;5058884;28;20037;-77
2023/06/10 10:59:05;;;;;;;9.65;3.78;;;24.00;99.90;;;;;;5055984;28;20056;-77
2023/06/10 11:01:46;;;;;;;9.40;3.50;;;24.10;99.90;;;;;;5058526;28;20463;-79
2023/06/10 11:04:12;;;;;;;9.18;3.30;;;24.10;99.90;;;;;;5060547;28;20470;-78
2023/06/10 11:06:38;;;;;;;9.35;3.55;;;24.00;99.90;;;;;;5053241;28;20397;-76
2023/06/10 11:09:30;;;;;;;12.57;4.07;;;23.60;99.90;;;;;;5056667;28;20043;-80
2023/06/10 11:12:02;;;;;;;12.95;4.00;;;24.10;99.90;;;;;;5058464;28;20514;-79
2023/06/10 11:14:32;;;;;;;10.73;3.67;;;24.20;99.90;;;;;;5053539;28;20051;-78
2023/06/10 11:16:59;;;;;;;9.70;3.50;;;24.30;99.90;;;;;;5060486;28;20405;-76
2023/06/10 11:19:36;;;;;;;9.75;3.83;;;24.00;99.90;;;;;;5042213;28;20040;-76
2023/06/10 11:22:05;;;;;;;9.07;3.70;;;24.40;99.90;;;;;;5041266;28;20524;-79
2023/06/10 11:24:31;;;;;;;9.73;3.22;;;24.40;99.90;;;;;;5037972;28;20189;-78
2023/06/10 11:27:21;;;;;;;9.05;3.38;;;24.40;99.90;;;;;;5063439;28;20507;-79
2023/06/10 11:30:07;;;;;;;9.93;3.67;;;24.50;99.90;;;;;;5057757;28;20048;-76
2023/06/10 11:32:34;;;;;;;9.43;3.30;;;24.60;99.90;;;;;;5056153;28;20075;-77
2023/06/10 11:35:03;;;;;;;9.80;3.47;;;24.70;99.90;;;;;;5055860;28;20041;-78
2023/06/10 11:37:29;;;;;;;11.18;3.33;;;24.80;99.90;;;;;;5060894;28;20044;-78
2023/06/10 11:39:55;;;;;;;9.88;3.90;;;24.70;99.90;;;;;;5058972;28;20045;-79
2023/06/10 11:42:22;;;;;;;12.40;4.18;;;24.90;99.90;;;;;;5062216;28;20044;-78
2023/06/10 11:44:52;;;;;;;9.00;3.75;;;24.80;99.90;;;;;;5061194;28;20052;-77
2023/06/10 11:47:19;;;;;;;11.30;4.30;;;24.90;99.90;;;;;;5065173;28;20048;-77
2023/06/10 11:49:46;;;;;;;11.45;4.10;;;25.00;99.90;;;;;;5060700;28;20057;-78
2023/06/10 11:52:12;;;;;;;9.80;3.58;;;25.10;99.90;;;;;;5061905;28;20131;-78
2023/06/10 11:54:38;;;;;;;11.00;4.15;;;25.10;99.90;;;;;;5064274;28;20111;-78
2023/06/10 11:57:05;;;;;;;10.68;3.83;;;25.10;99.90;;;;;;5066169;28;20112;-78
2023/06/10 11:59:31;;;;;;;11.30;4.13;;;;;;;;;;5064059;28;20142;-77
2023/06/10 12:01:58;;;;;;;8.98;3.88;;;24.70;99.90;;;;;;5063517;28;20493;-78
2023/06/10 12:04:25;;;;;;;10.55;3.88;;;26.60;99.90;;;;;;5062596;28;20036;-78
2023/06/10 12:06:53;;;;;;;11.32;4.28;;;25.00;99.90;;;;;;5056475;28;20119;-79
2023/06/10 12:09:24;;;;;;;10.20;3.85;;;25.10;99.90;;;;;;5056434;28;20125;-77
2023/06/10 12:11:59;;;;;;;10.90;3.53;;;25.20;99.90;;;;;;5065531;28;20133;-78
2023/06/10 12:14:51;;;;;;;10.30;4.00;;;26.50;99.90;;;;;;5062283;28;20086;-78
2023/06/10 12:17:17;;;;;;;11.88;4.00;;;25.20;99.90;;;;;;5058878;28;20055;-77
2023/06/10 12:19:43;;;;;;;9.80;4.00;;;25.40;99.90;;;;;;5057730;28;20045;-78
2023/06/10 12:22:09;;;;;;;10.32;4.30;;;25.40;99.90;;;;;;5064124;28;20036;-77
2023/06/10 12:24:59;;;;;;;12.00;4.40;;;24.90;99.90;;;;;;5030121;28;20612;-79
2023/06/10 12:27:25;;;;;;;11.35;4.15;;;25.40;99.90;;;;;;5061033;28;20731;-79
2023/06/10 12:29:55;;;;;;;11.05;3.97;;;25.40;99.90;;;;;;5055373;28;20047;-78
2023/06/10 12:32:27;;;;;;;9.95;3.97;;;25.30;99.90;;;;;;5039556;28;20037;-78
2023/06/10 12:35:06;;;;;;;10.77;4.05;;;25.30;99.90;;;;;;5040064;28;20036;-78
2023/06/10 12:37:35;;;;;;;12.40;3.88;;;25.30;99.90;;;;;;5054677;28;20044;-77
2023/06/10 12:40:02;;;;;;;12.35;4.05;;;25.30;99.90;;;;;;5054481;28;20053;-79
2023/06/10 12:42:30;;;;;;;10.90;3.60;;;25.40;99.90;;;;;;5051282;28;20061;-78